MSC Cordoba — A8OF8 — position and weather

sailwx.info

Track history (hours):
 
Tides and Currents Weather Stations Pressure Air Temp Water Temp Dewpoint Dewpoint Depression Visibility Wind Speed Wind Dir Waves Ship Positions

MSC Cordoba

Last reported at 2018-Feb-18 23:57 UTC. Time now 2018-Feb-19 14:13 UTC.
Position N 37°41' E 024°30'.

Length 275 m; draft 12.1 m.

Type: Ship. MMSI: 636091473.

Date/timePositionNaut miles runAvg speedWind from/ knotsBaromVisibWave heightAir tempDewpointWater temp
2018-Feb-18 23:57N 37°41' E 024°30'47819.8
2018-Feb-17 23:44N 36°30' E 014°37'521.6
2018-Feb-17 23:30N 36°31' E 014°31'1121.5
2018-Feb-17 23:01N 36°34' E 014°18'1121.6
2018-Feb-17 22:31N 36°37' E 014°05'1121.5
2018-Feb-17 22:00N 36°40' E 013°52'1121.5
2018-Feb-17 21:30N 36°43' E 013°39'53121.2
2018-Feb-16 20:28N 36°55' E 002°36'4822.7
2018-Feb-16 18:21N 36°49' E 001°36'4722.2
2018-Feb-16 16:13N 36°43' E 000°38'621.5
2018-Feb-16 15:57N 36°42' E 000°31'5121.4
2018-Feb-16 13:35N 36°34' W 000°31'221.5
2018-Feb-16 13:29N 36°33' W 000°34'1021.3
2018-Feb-16 13:00N 36°32' W 000°47'45018.4
2018-Feb-15 12:35N 38°11' W 009°59'221.2
2018-Feb-15 12:29N 38°13' W 009°60'1021.3
2018-Feb-15 12:00N 38°23' W 010°02'1021.3
2018-Feb-15 11:30N 38°34' W 010°04'1121.1
2018-Feb-15 11:00N 38°44' W 010°06'1021.0
2018-Feb-15 10:30N 38°55' W 010°07'1020.9
2018-Feb-15 10:00N 39°05' W 010°08'1020.8
2018-Feb-15 09:30N 39°16' W 010°07'69718.8
2018-Feb-13 20:24N 49°51' W 003°24'819.8
2018-Feb-13 20:00N 49°53' W 003°12'919.2
2018-Feb-13 19:30N 49°58' W 002°59'918.6
2018-Feb-13 19:00N 50°02' W 002°46'1018.0
2018-Feb-13 18:28N 50°05' W 002°32'1517.8
2018-Feb-13 17:36N 50°09' W 002°08'317.8
2018-Feb-13 17:27N 50°10' W 002°04'817.9
2018-Feb-13 17:00N 50°12' W 001°52'918.7
2018-Feb-13 16:30N 50°14' W 001°38'1019.5
2018-Feb-13 16:00N 50°17' W 001°24'3921.1
2018-Feb-13 14:09N 50°26' W 000°24'319.7
2018-Feb-13 14:00N 50°27' W 000°20'1020.3
2018-Feb-13 13:30N 50°29' W 000°04'1020.3
2018-Feb-13 13:00N 50°32' E 000°11'1020.1
2018-Feb-13 12:30N 50°34' E 000°26'1019.5
2018-Feb-13 12:01N 50°38' E 000°41'918.7
2018-Feb-13 11:30N 50°43' E 000°53'917.9
2018-Feb-13 11:01N 50°48' E 001°04'1117.4
2018-Feb-13 10:22N 50°55' E 001°18'816.8
2018-Feb-13 09:55N 51°00' E 001°27'716.6
2018-Feb-13 09:31N 51°05' E 001°34'917.2
2018-Feb-13 09:00N 51°12' E 001°43'918.8
2018-Feb-13 08:31N 51°20' E 001°52'917.8
2018-Feb-13 08:01N 51°25' E 002°03'1020.8
2018-Feb-13 07:31N 51°21' E 002°18'1019.9
2018-Feb-13 06:59N 51°23' E 002°35'714.0
2018-Feb-13 06:30N 51°24' E 002°45'816.1
2018-Feb-13 05:59N 51°25' E 002°59'918.5
2018-Feb-13 05:30N 51°24' E 003°13'918.9
2018-Feb-13 05:00N 51°25' E 003°28'611.3
2018-Feb-13 04:30N 51°26' E 003°37'5 9.2
2018-Feb-13 04:00N 51°23' E 003°43'714.0
2018-Feb-13 03:30N 51°21' E 003°54'613.0
2018-Feb-13 03:00N 51°26' E 004°01'611.5
2018-Feb-13 02:30N 51°22' E 004°08'4 8.6
2018-Feb-13 02:00N 51°21' E 004°15'3 6.6
2018-Feb-13 01:30N 51°18' E 004°16'0 0.2
2018-Feb-13 00:58N 51°18' E 004°16'0 0.0
2018-Feb-13 00:28N 51°18' E 004°16'0 0.0
2018-Feb-12 23:58N 51°18' E 004°16'0 0.0
2018-Feb-12 23:28N 51°18' E 004°16'0 0.0
2018-Feb-12 22:58N 51°18' E 004°16'0 0.0
2018-Feb-12 22:27N 51°18' E 004°16'0 0.0
2018-Feb-12 22:00N 51°18' E 004°16'0 0.0
2018-Feb-12 21:30N 51°18' E 004°16'0 0.0
2018-Feb-12 21:00N 51°18' E 004°16'0 0.0
2018-Feb-12 20:30N 51°18' E 004°16'0 0.0
2018-Feb-12 19:59N 51°18' E 004°16'0 0.0
2018-Feb-12 19:26N 51°18' E 004°16'0 0.0
2018-Feb-12 18:59N 51°18' E 004°16'0 0.0
2018-Feb-12 18:29N 51°18' E 004°16'0 0.0
2018-Feb-12 17:58N 51°18' E 004°16'0 0.0
2018-Feb-12 17:28N 51°18' E 004°16'0 0.0
2018-Feb-12 16:58N 51°18' E 004°16'0 0.0
2018-Feb-12 16:25N 51°18' E 004°16'0 0.0
2018-Feb-12 16:01N 51°18' E 004°16'0 0.0
2018-Feb-12 15:15N 51°18' E 004°16'0 0.0
2018-Feb-12 15:00N 51°18' E 004°16'0 0.0
2018-Feb-12 14:27N 51°18' E 004°16'0 0.0
2018-Feb-12 14:00N 51°18' E 004°16'0 0.0
2018-Feb-12 13:30N 51°18' E 004°16'0 0.0
2018-Feb-12 12:59N 51°18' E 004°16'0 0.0
2018-Feb-12 12:29N 51°18' E 004°16'0 0.0
2018-Feb-12 11:59N 51°18' E 004°16'0 0.0
2018-Feb-12 11:29N 51°18' E 004°16'0 0.0
2018-Feb-12 10:58N 51°18' E 004°16'0 0.0
2018-Feb-12 10:28N 51°18' E 004°16'0 0.0
2018-Feb-12 09:58N 51°18' E 004°16'0 0.0
2018-Feb-12 09:28N 51°18' E 004°16'0 0.0
2018-Feb-12 09:01N 51°18' E 004°16'0 0.0
2018-Feb-12 08:27N 51°18' E 004°16'0 0.0
2018-Feb-12 08:00N 51°18' E 004°16'0 0.0
2018-Feb-12 07:30N 51°18' E 004°16'0 0.0
2018-Feb-12 07:00N 51°18' E 004°16'0 0.0
2018-Feb-12 06:29N 51°18' E 004°16'0 0.0
2018-Feb-12 05:59N 51°18' E 004°16'0 0.0
2018-Feb-12 05:29N 51°18' E 004°16'0 0.0
2018-Feb-12 04:59N 51°18' E 004°16'0 0.0
2018-Feb-12 04:29N 51°18' E 004°16'0 0.0
2018-Feb-12 03:58N 51°18' E 004°16'0 0.0
2018-Feb-12 03:28N 51°18' E 004°16'0 0.0
2018-Feb-12 02:58N 51°18' E 004°16'0 0.0
2018-Feb-12 02:28N 51°18' E 004°16'0 0.0
2018-Feb-12 01:57N 51°18' E 004°16'0 0.0
2018-Feb-12 01:30N 51°18' E 004°16'0 0.0
2018-Feb-12 00:57N 51°18' E 004°16'0 0.0
2018-Feb-12 00:27N 51°18' E 004°16'0 0.0
2018-Feb-12 00:00N 51°18' E 004°16'0 0.0
2018-Feb-11 23:29N 51°18' E 004°16'0 0.0
2018-Feb-11 22:59N 51°18' E 004°16'0 0.0
2018-Feb-11 22:29N 51°18' E 004°16'0 0.0
2018-Feb-11 21:59N 51°18' E 004°16'0 0.0
2018-Feb-11 21:29N 51°18' E 004°16'0 0.0
2018-Feb-11 20:58N 51°18' E 004°16'0 0.0
2018-Feb-11 20:25N 51°18' E 004°16'0 0.0
2018-Feb-11 19:55N 51°18' E 004°16'0 0.0
2018-Feb-11 19:28N 51°18' E 004°16'0 0.0
2018-Feb-11 19:00N 51°18' E 004°16'0 0.0
2018-Feb-11 18:30N 51°18' E 004°16'0 0.0
2018-Feb-11 17:57N 51°18' E 004°16'0 0.0
2018-Feb-11 17:30N 51°18' E 004°16'0 0.0
2018-Feb-11 17:00N 51°18' E 004°16'0 0.0
2018-Feb-11 16:29N 51°18' E 004°16'0 0.0
2018-Feb-11 16:00N 51°18' E 004°16'1 2.6
2018-Feb-11 15:31N 51°19' E 004°16'4 8.7
2018-Feb-11 15:00N 51°23' E 004°13'5 9.7
2018-Feb-11 14:31N 51°22' E 004°05'611.0
2018-Feb-11 14:01N 51°26' E 003°59'612.9
2018-Feb-11 13:31N 51°21' E 003°53'611.8
2018-Feb-11 13:01N 51°23' E 003°44'510.4
2018-Feb-11 12:31N 51°26' E 003°37'4 8.2
2018-Feb-11 12:00N 51°25' E 003°31'612.1
2018-Feb-11 11:31N 51°24' E 003°21'712.9
2018-Feb-11 11:00N 51°24' E 003°11'712.9
2018-Feb-11 10:29N 51°25' E 003°00'713.2
2018-Feb-11 09:59N 51°25' E 002°49'611.7
2018-Feb-11 09:30N 51°22' E 002°42'6 8.3
2018-Feb-11 08:48N 51°22' E 002°33'2 7.9
2018-Feb-11 08:30N 51°22' E 002°29'4 7.6
2018-Feb-11 08:01N 51°21' E 002°24'4 7.8
2018-Feb-11 07:30N 51°19' E 002°18'2 4.1
2018-Feb-11 07:01N 51°19' E 002°15'5 9.6
2018-Feb-11 06:31N 51°20' E 002°07'918.9
2018-Feb-11 06:00N 51°26' E 001°56'1020.7
2018-Feb-11 05:30N 51°35' E 001°47'1020.6
2018-Feb-11 05:01N 51°45' E 001°45'815.7
2018-Feb-11 04:30N 51°51' E 001°38'4 8.6
2018-Feb-11 04:00N 51°55' E 001°34'612.4
2018-Feb-11 03:30N 51°56' E 001°24'4 7.5
2018-Feb-11 03:00N 51°57' E 001°18'0 0.4
2018-Feb-11 02:28N 51°58' E 001°18'0 0.0
2018-Feb-11 01:55N 51°58' E 001°18'0 0.0
2018-Feb-11 01:28N 51°58' E 001°18'0 0.0
2018-Feb-11 00:58N 51°58' E 001°18'0 0.0
2018-Feb-11 00:30N 51°58' E 001°18'0 0.0
2018-Feb-11 00:00N 51°58' E 001°18'0 0.0
2018-Feb-10 23:30N 51°58' E 001°18'0 0.0
2018-Feb-10 23:00N 51°58' E 001°18'0 0.0
2018-Feb-10 22:29N 51°58' E 001°18'0 0.0
2018-Feb-10 21:59N 51°58' E 001°18'0 0.0
2018-Feb-10 21:29N 51°58' E 001°18'0 0.0
2018-Feb-10 20:59N 51°58' E 001°18'0 0.0
2018-Feb-10 20:29N 51°58' E 001°18'0 0.0
2018-Feb-10 19:58N 51°58' E 001°18'0 0.0
2018-Feb-10 19:28N 51°58' E 001°18'0 0.0
2018-Feb-10 18:58N 51°58' E 001°18'0 0.0
2018-Feb-10 18:28N 51°58' E 001°18'0 0.0
2018-Feb-10 18:01N 51°58' E 001°18'0 0.0
2018-Feb-10 17:27N 51°58' E 001°18'0 0.0
2018-Feb-10 17:00N 51°58' E 001°18'0 0.0
2018-Feb-10 16:30N 51°58' E 001°18'0 0.0
2018-Feb-10 16:00N 51°58' E 001°18'0 0.0
2018-Feb-10 15:29N 51°58' E 001°18'0 0.0
2018-Feb-10 14:59N 51°58' E 001°18'0 0.0
2018-Feb-10 14:26N 51°58' E 001°18'0 0.0
2018-Feb-10 13:56N 51°58' E 001°18'0 0.0
2018-Feb-10 13:29N 51°58' E 001°18'0 0.0
2018-Feb-10 12:58N 51°58' E 001°18'0 0.0
2018-Feb-10 12:25N 51°58' E 001°18'0 0.0
2018-Feb-10 11:55N 51°58' E 001°18'0 0.0
2018-Feb-10 11:25N 51°58' E 001°18'0 0.0
2018-Feb-10 11:00N 51°58' E 001°18'0 0.0
2018-Feb-10 10:30N 51°58' E 001°18'0 0.0
2018-Feb-10 10:00N 51°58' E 001°18'0 0.0
2018-Feb-10 09:30N 51°58' E 001°18'0 0.0
2018-Feb-10 09:00N 51°58' E 001°18'0 0.0
2018-Feb-10 08:29N 51°58' E 001°18'0 0.0
2018-Feb-10 07:59N 51°58' E 001°18'0 0.0
2018-Feb-10 07:29N 51°58' E 001°18'0 0.0
2018-Feb-10 06:59N 51°58' E 001°18'0 0.0
2018-Feb-10 06:28N 51°58' E 001°18'0 0.0
2018-Feb-10 05:58N 51°58' E 001°18'0 0.0
2018-Feb-10 05:28N 51°58' E 001°18'0 0.0
2018-Feb-10 04:58N 51°58' E 001°18'0 0.0
2018-Feb-10 04:28N 51°58' E 001°18'0 0.0
2018-Feb-10 04:01N 51°58' E 001°18'0 0.1
2018-Feb-10 03:30N 51°57' E 001°18'1 2.4
2018-Feb-10 03:00N 51°56' E 001°19'510.0
2018-Feb-10 02:31N 51°56' E 001°27'5 9.9
2018-Feb-10 02:00N 51°53' E 001°34'4 8.9
2018-Feb-10 01:30N 51°52' E 001°41'4 7.4
2018-Feb-10 01:00N 51°51' E 001°46'714.5
2018-Feb-10 00:30N 51°44' E 001°49'1020.2
2018-Feb-10 00:00N 51°34' E 001°51'1020.0
2018-Feb-09 23:30N 51°26' E 001°59'917.4
2018-Feb-09 23:00N 51°17' E 001°56'520.4
2018-Feb-09 22:46N 51°14' E 001°50'520.5
2018-Feb-09 22:30N 51°10' E 001°44'1020.5
2018-Feb-09 22:01N 51°01' E 001°35'1020.6
2018-Feb-09 21:30N 50°54' E 001°24'5719.1
2018-Feb-09 18:30N 50°23' E 000°08'7621.9
2018-Feb-09 15:00N 50°01' W 001°46'  
Track history (hours):
 
Tides and Currents Weather Stations Pressure Air Temp Water Temp Dewpoint Dewpoint Depression Visibility Wind Speed Wind Dir Waves Ship Positions

MSC Cordoba

Last reported at 2018-Feb-18 23:57 UTC. Time now 2018-Feb-19 14:13 UTC.
Position N 37°41' E 024°30'.

Length 275 m; draft 12.1 m.

Type: Ship. MMSI: 636091473.

Date/timePositionNaut miles runAvg speedWind from/ knotsBaromVisibWave heightAir tempDewpointWater temp
2018-Feb-18 23:57N 37°41' E 024°30'47819.8
2018-Feb-17 23:44N 36°30' E 014°37'521.6
2018-Feb-17 23:30N 36°31' E 014°31'1121.5
2018-Feb-17 23:01N 36°34' E 014°18'1121.6
2018-Feb-17 22:31N 36°37' E 014°05'1121.5
2018-Feb-17 22:00N 36°40' E 013°52'1121.5
2018-Feb-17 21:30N 36°43' E 013°39'53121.2
2018-Feb-16 20:28N 36°55' E 002°36'4822.7
2018-Feb-16 18:21N 36°49' E 001°36'4722.2
2018-Feb-16 16:13N 36°43' E 000°38'621.5
2018-Feb-16 15:57N 36°42' E 000°31'5121.4
2018-Feb-16 13:35N 36°34' W 000°31'221.5
2018-Feb-16 13:29N 36°33' W 000°34'1021.3
2018-Feb-16 13:00N 36°32' W 000°47'45018.4
2018-Feb-15 12:35N 38°11' W 009°59'221.2
2018-Feb-15 12:29N 38°13' W 009°60'1021.3
2018-Feb-15 12:00N 38°23' W 010°02'1021.3
2018-Feb-15 11:30N 38°34' W 010°04'1121.1
2018-Feb-15 11:00N 38°44' W 010°06'1021.0
2018-Feb-15 10:30N 38°55' W 010°07'1020.9
2018-Feb-15 10:00N 39°05' W 010°08'1020.8
2018-Feb-15 09:30N 39°16' W 010°07'69718.8
2018-Feb-13 20:24N 49°51' W 003°24'819.8
2018-Feb-13 20:00N 49°53' W 003°12'919.2
2018-Feb-13 19:30N 49°58' W 002°59'918.6
2018-Feb-13 19:00N 50°02' W 002°46'1018.0
2018-Feb-13 18:28N 50°05' W 002°32'1517.8
2018-Feb-13 17:36N 50°09' W 002°08'317.8
2018-Feb-13 17:27N 50°10' W 002°04'817.9
2018-Feb-13 17:00N 50°12' W 001°52'918.7
2018-Feb-13 16:30N 50°14' W 001°38'1019.5
2018-Feb-13 16:00N 50°17' W 001°24'3921.1
2018-Feb-13 14:09N 50°26' W 000°24'319.7
2018-Feb-13 14:00N 50°27' W 000°20'1020.3
2018-Feb-13 13:30N 50°29' W 000°04'1020.3
2018-Feb-13 13:00N 50°32' E 000°11'1020.1
2018-Feb-13 12:30N 50°34' E 000°26'1019.5
2018-Feb-13 12:01N 50°38' E 000°41'918.7
2018-Feb-13 11:30N 50°43' E 000°53'917.9
2018-Feb-13 11:01N 50°48' E 001°04'1117.4
2018-Feb-13 10:22N 50°55' E 001°18'816.8
2018-Feb-13 09:55N 51°00' E 001°27'716.6
2018-Feb-13 09:31N 51°05' E 001°34'917.2
2018-Feb-13 09:00N 51°12' E 001°43'918.8
2018-Feb-13 08:31N 51°20' E 001°52'917.8
2018-Feb-13 08:01N 51°25' E 002°03'1020.8
2018-Feb-13 07:31N 51°21' E 002°18'1019.9
2018-Feb-13 06:59N 51°23' E 002°35'714.0
2018-Feb-13 06:30N 51°24' E 002°45'816.1
2018-Feb-13 05:59N 51°25' E 002°59'918.5
2018-Feb-13 05:30N 51°24' E 003°13'918.9
2018-Feb-13 05:00N 51°25' E 003°28'611.3
2018-Feb-13 04:30N 51°26' E 003°37'5 9.2
2018-Feb-13 04:00N 51°23' E 003°43'714.0
2018-Feb-13 03:30N 51°21' E 003°54'613.0
2018-Feb-13 03:00N 51°26' E 004°01'611.5
2018-Feb-13 02:30N 51°22' E 004°08'4 8.6
2018-Feb-13 02:00N 51°21' E 004°15'3 6.6
2018-Feb-13 01:30N 51°18' E 004°16'0 0.2
2018-Feb-13 00:58N 51°18' E 004°16'0 0.0
2018-Feb-13 00:28N 51°18' E 004°16'0 0.0
2018-Feb-12 23:58N 51°18' E 004°16'0 0.0
2018-Feb-12 23:28N 51°18' E 004°16'0 0.0
2018-Feb-12 22:58N 51°18' E 004°16'0 0.0
2018-Feb-12 22:27N 51°18' E 004°16'0 0.0
2018-Feb-12 22:00N 51°18' E 004°16'0 0.0
2018-Feb-12 21:30N 51°18' E 004°16'0 0.0
2018-Feb-12 21:00N 51°18' E 004°16'0 0.0
2018-Feb-12 20:30N 51°18' E 004°16'0 0.0
2018-Feb-12 19:59N 51°18' E 004°16'0 0.0
2018-Feb-12 19:26N 51°18' E 004°16'0 0.0
2018-Feb-12 18:59N 51°18' E 004°16'0 0.0
2018-Feb-12 18:29N 51°18' E 004°16'0 0.0
2018-Feb-12 17:58N 51°18' E 004°16'0 0.0
2018-Feb-12 17:28N 51°18' E 004°16'0 0.0
2018-Feb-12 16:58N 51°18' E 004°16'0 0.0
2018-Feb-12 16:25N 51°18' E 004°16'0 0.0
2018-Feb-12 16:01N 51°18' E 004°16'0 0.0
2018-Feb-12 15:15N 51°18' E 004°16'0 0.0
2018-Feb-12 15:00N 51°18' E 004°16'0 0.0
2018-Feb-12 14:27N 51°18' E 004°16'0 0.0
2018-Feb-12 14:00N 51°18' E 004°16'0 0.0
2018-Feb-12 13:30N 51°18' E 004°16'0 0.0
2018-Feb-12 12:59N 51°18' E 004°16'0 0.0
2018-Feb-12 12:29N 51°18' E 004°16'0 0.0
2018-Feb-12 11:59N 51°18' E 004°16'0 0.0
2018-Feb-12 11:29N 51°18' E 004°16'0 0.0
2018-Feb-12 10:58N 51°18' E 004°16'0 0.0
2018-Feb-12 10:28N 51°18' E 004°16'0 0.0
2018-Feb-12 09:58N 51°18' E 004°16'0 0.0
2018-Feb-12 09:28N 51°18' E 004°16'0 0.0
2018-Feb-12 09:01N 51°18' E 004°16'0 0.0
2018-Feb-12 08:27N 51°18' E 004°16'0 0.0
2018-Feb-12 08:00N 51°18' E 004°16'0 0.0
2018-Feb-12 07:30N 51°18' E 004°16'0 0.0
2018-Feb-12 07:00N 51°18' E 004°16'0 0.0
2018-Feb-12 06:29N 51°18' E 004°16'0 0.0
2018-Feb-12 05:59N 51°18' E 004°16'0 0.0
2018-Feb-12 05:29N 51°18' E 004°16'0 0.0
2018-Feb-12 04:59N 51°18' E 004°16'0 0.0
2018-Feb-12 04:29N 51°18' E 004°16'0 0.0
2018-Feb-12 03:58N 51°18' E 004°16'0 0.0
2018-Feb-12 03:28N 51°18' E 004°16'0 0.0
2018-Feb-12 02:58N 51°18' E 004°16'0 0.0
2018-Feb-12 02:28N 51°18' E 004°16'0 0.0
2018-Feb-12 01:57N 51°18' E 004°16'0 0.0
2018-Feb-12 01:30N 51°18' E 004°16'0 0.0
2018-Feb-12 00:57N 51°18' E 004°16'0 0.0
2018-Feb-12 00:27N 51°18' E 004°16'0 0.0
2018-Feb-12 00:00N 51°18' E 004°16'0 0.0
2018-Feb-11 23:29N 51°18' E 004°16'0 0.0
2018-Feb-11 22:59N 51°18' E 004°16'0 0.0
2018-Feb-11 22:29N 51°18' E 004°16'0 0.0
2018-Feb-11 21:59N 51°18' E 004°16'0 0.0
2018-Feb-11 21:29N 51°18' E 004°16'0 0.0
2018-Feb-11 20:58N 51°18' E 004°16'0 0.0
2018-Feb-11 20:25N 51°18' E 004°16'0 0.0
2018-Feb-11 19:55N 51°18' E 004°16'0 0.0
2018-Feb-11 19:28N 51°18' E 004°16'0 0.0
2018-Feb-11 19:00N 51°18' E 004°16'0 0.0
2018-Feb-11 18:30N 51°18' E 004°16'0 0.0
2018-Feb-11 17:57N 51°18' E 004°16'0 0.0
2018-Feb-11 17:30N 51°18' E 004°16'0 0.0
2018-Feb-11 17:00N 51°18' E 004°16'0 0.0
2018-Feb-11 16:29N 51°18' E 004°16'0 0.0
2018-Feb-11 16:00N 51°18' E 004°16'1 2.6
2018-Feb-11 15:31N 51°19' E 004°16'4 8.7
2018-Feb-11 15:00N 51°23' E 004°13'5 9.7
2018-Feb-11 14:31N 51°22' E 004°05'611.0
2018-Feb-11 14:01N 51°26' E 003°59'612.9
2018-Feb-11 13:31N 51°21' E 003°53'611.8
2018-Feb-11 13:01N 51°23' E 003°44'510.4
2018-Feb-11 12:31N 51°26' E 003°37'4 8.2
2018-Feb-11 12:00N 51°25' E 003°31'612.1
2018-Feb-11 11:31N 51°24' E 003°21'712.9
2018-Feb-11 11:00N 51°24' E 003°11'712.9
2018-Feb-11 10:29N 51°25' E 003°00'713.2
2018-Feb-11 09:59N 51°25' E 002°49'611.7
2018-Feb-11 09:30N 51°22' E 002°42'6 8.3
2018-Feb-11 08:48N 51°22' E 002°33'2 7.9
2018-Feb-11 08:30N 51°22' E 002°29'4 7.6
2018-Feb-11 08:01N 51°21' E 002°24'4 7.8
2018-Feb-11 07:30N 51°19' E 002°18'2 4.1
2018-Feb-11 07:01N 51°19' E 002°15'5 9.6
2018-Feb-11 06:31N 51°20' E 002°07'918.9
2018-Feb-11 06:00N 51°26' E 001°56'1020.7
2018-Feb-11 05:30N 51°35' E 001°47'1020.6
2018-Feb-11 05:01N 51°45' E 001°45'815.7
2018-Feb-11 04:30N 51°51' E 001°38'4 8.6
2018-Feb-11 04:00N 51°55' E 001°34'612.4
2018-Feb-11 03:30N 51°56' E 001°24'4 7.5
2018-Feb-11 03:00N 51°57' E 001°18'0 0.4
2018-Feb-11 02:28N 51°58' E 001°18'0 0.0
2018-Feb-11 01:55N 51°58' E 001°18'0 0.0
2018-Feb-11 01:28N 51°58' E 001°18'0 0.0
2018-Feb-11 00:58N 51°58' E 001°18'0 0.0
2018-Feb-11 00:30N 51°58' E 001°18'0 0.0
2018-Feb-11 00:00N 51°58' E 001°18'0 0.0
2018-Feb-10 23:30N 51°58' E 001°18'0 0.0
2018-Feb-10 23:00N 51°58' E 001°18'0 0.0
2018-Feb-10 22:29N 51°58' E 001°18'0 0.0
2018-Feb-10 21:59N 51°58' E 001°18'0 0.0
2018-Feb-10 21:29N 51°58' E 001°18'0 0.0
2018-Feb-10 20:59N 51°58' E 001°18'0 0.0
2018-Feb-10 20:29N 51°58' E 001°18'0 0.0
2018-Feb-10 19:58N 51°58' E 001°18'0 0.0
2018-Feb-10 19:28N 51°58' E 001°18'0 0.0
2018-Feb-10 18:58N 51°58' E 001°18'0 0.0
2018-Feb-10 18:28N 51°58' E 001°18'0 0.0
2018-Feb-10 18:01N 51°58' E 001°18'0 0.0
2018-Feb-10 17:27N 51°58' E 001°18'0 0.0
2018-Feb-10 17:00N 51°58' E 001°18'0 0.0
2018-Feb-10 16:30N 51°58' E 001°18'0 0.0
2018-Feb-10 16:00N 51°58' E 001°18'0 0.0
2018-Feb-10 15:29N 51°58' E 001°18'0 0.0
2018-Feb-10 14:59N 51°58' E 001°18'0 0.0
2018-Feb-10 14:26N 51°58' E 001°18'0 0.0
2018-Feb-10 13:56N 51°58' E 001°18'0 0.0
2018-Feb-10 13:29N 51°58' E 001°18'0 0.0
2018-Feb-10 12:58N 51°58' E 001°18'0 0.0
2018-Feb-10 12:25N 51°58' E 001°18'0 0.0
2018-Feb-10 11:55N 51°58' E 001°18'0 0.0
2018-Feb-10 11:25N 51°58' E 001°18'0 0.0
2018-Feb-10 11:00N 51°58' E 001°18'0 0.0
2018-Feb-10 10:30N 51°58' E 001°18'0 0.0
2018-Feb-10 10:00N 51°58' E 001°18'0 0.0
2018-Feb-10 09:30N 51°58' E 001°18'0 0.0
2018-Feb-10 09:00N 51°58' E 001°18'0 0.0
2018-Feb-10 08:29N 51°58' E 001°18'0 0.0
2018-Feb-10 07:59N 51°58' E 001°18'0 0.0
2018-Feb-10 07:29N 51°58' E 001°18'0 0.0
2018-Feb-10 06:59N 51°58' E 001°18'0 0.0
2018-Feb-10 06:28N 51°58' E 001°18'0 0.0
2018-Feb-10 05:58N 51°58' E 001°18'0 0.0
2018-Feb-10 05:28N 51°58' E 001°18'0 0.0
2018-Feb-10 04:58N 51°58' E 001°18'0 0.0
2018-Feb-10 04:28N 51°58' E 001°18'0 0.0
2018-Feb-10 04:01N 51°58' E 001°18'0 0.1
2018-Feb-10 03:30N 51°57' E 001°18'1 2.4
2018-Feb-10 03:00N 51°56' E 001°19'510.0
2018-Feb-10 02:31N 51°56' E 001°27'5 9.9
2018-Feb-10 02:00N 51°53' E 001°34'4 8.9
2018-Feb-10 01:30N 51°52' E 001°41'4 7.4
2018-Feb-10 01:00N 51°51' E 001°46'714.5
2018-Feb-10 00:30N 51°44' E 001°49'1020.2
2018-Feb-10 00:00N 51°34' E 001°51'1020.0
2018-Feb-09 23:30N 51°26' E 001°59'917.4
2018-Feb-09 23:00N 51°17' E 001°56'520.4
2018-Feb-09 22:46N 51°14' E 001°50'520.5
2018-Feb-09 22:30N 51°10' E 001°44'1020.5
2018-Feb-09 22:01N 51°01' E 001°35'1020.6
2018-Feb-09 21:30N 50°54' E 001°24'5719.1
2018-Feb-09 18:30N 50°23' E 000°08'7621.9
2018-Feb-09 15:00N 50°01' W 001°46'  

Dump ship's entire track history